Time;durP1;ratioP1;P1;durP2;ratioP2;P2;SDS_P1;SDS_P2;PMS_P1;PMS_P2;Temp;Humidity;BMP_temperature;BMP_pressure;BME280_temperature;BME280_humidity;BME280_pressure;Samples;Min_cycle;Max_cycle;Signal;HPM_P1;HPM_P2
2021/03/23 00:00:57;;;;;;;38.13;21.20;;;;;;;;;;778672;179;919027;-69
2021/03/23 00:03:34;;;;;;;41.03;21.47;;;;;;;;;;775642;179;1311326;-70
2021/03/23 00:06:00;;;;;;;45.60;23.23;;;;;;;;;;769472;182;918923;-69
2021/03/23 00:08:26;;;;;;;40.47;24.53;;;;;;;;;;777274;179;919821;-69
2021/03/23 00:10:51;;;;;;;45.07;25.77;;;;;;;;;;778016;179;919308;-69
2021/03/23 00:13:17;;;;;;;55.57;27.17;;;;;;;;;;783089;179;918763;-69
2021/03/23 00:15:43;;;;;;;50.30;22.97;;;;;;;;;;774849;179;918270;-69
2021/03/23 00:18:09;;;;;;;42.27;25.97;;;;;;;;;;778410;179;919463;-69
2021/03/23 00:20:35;;;;;;;39.03;23.10;;;;;;;;;;776463;177;919252;-69
2021/03/23 00:23:01;;;;;;;41.03;24.67;;;;;;;;;;784471;178;919549;-69
2021/03/23 00:25:27;;;;;;;45.10;27.63;;;;;;;;;;775832;178;926505;-70
2021/03/23 00:27:53;;;;;;;34.77;23.73;;;;;;;;;;780437;178;919291;-69
2021/03/23 00:30:19;;;;;;;46.73;26.30;;;;;;;;;;782528;178;918676;-69
2021/03/23 00:32:45;;;;;;;51.67;28.87;;;;;;;;;;779330;178;918616;-69
2021/03/23 00:35:10;;;;;;;43.23;27.07;;;;;;;;;;776467;178;918947;-70
2021/03/23 00:37:36;;;;;;;49.13;25.23;;;;;;;;;;783134;178;919072;-70
2021/03/23 00:40:03;;;;;;;42.13;24.63;;;;;;;;;;776890;179;920005;-71
2021/03/23 00:42:28;;;;;;;42.03;25.07;;;;;;;;;;779717;179;945343;-70
2021/03/23 00:44:54;;;;;;;46.23;25.07;;;;;;;;;;775941;179;921817;-69
2021/03/23 00:47:20;;;;;;;42.80;27.48;;;;;;;;;;780169;175;912878;-69
2021/03/23 00:49:47;;;;;;;49.00;28.90;;;;;;;;;;778486;179;1021551;-68
2021/03/23 00:52:13;;;;;;;37.30;24.20;;;;;;;;;;774901;179;1218915;-69
2021/03/23 00:54:38;;;;;;;45.30;27.23;;;;;;;;;;783716;179;920142;-70
2021/03/23 00:57:05;;;;;;;50.80;27.60;;;;;;;;;;776115;179;922668;-69
2021/03/23 00:59:30;;;;;;;52.25;27.48;;;;;;;;;;779071;179;987839;-69
2021/03/23 01:01:56;;;;;;;49.53;28.03;;;;;;;;;;777720;179;916183;-69
2021/03/23 01:04:22;;;;;;;57.00;27.80;;;;;;;;;;777134;179;918920;-69
2021/03/23 01:06:48;;;;;;;46.00;27.20;;;;;;;;;;773488;179;919006;-69
2021/03/23 01:09:14;;;;;;;41.90;27.20;;;;;;;;;;779913;179;919468;-69
2021/03/23 01:11:40;;;;;;;51.07;26.47;;;;;;;;;;772972;179;1421540;-70
2021/03/23 01:14:05;;;;;;;55.60;28.90;;;;;;;;;;778083;179;918884;-68
2021/03/23 01:16:31;;;;;;;111.20;43.20;;;;;;;;;;774595;179;918787;-69
2021/03/23 01:18:57;;;;;;;98.50;44.90;;;;;;;;;;780898;177;917522;-70
2021/03/23 01:21:27;;;;;;;38.00;24.50;;;;;;;;;;776259;179;1021862;-69
2021/03/23 01:23:53;;;;;;;41.20;25.03;;;;;;;;;;777533;179;923196;-69
2021/03/23 01:26:19;;;;;;;39.10;25.20;;;;;;;;;;781360;179;919355;-68
2021/03/23 01:28:45;;;;;;;41.67;24.60;;;;;;;;;;775412;179;925744;-69
2021/03/23 01:31:11;;;;;;;41.00;25.90;;;;;;;;;;778395;178;919167;-69
2021/03/23 01:33:36;;;;;;;39.97;23.83;;;;;;;;;;778240;178;1488527;-69
2021/03/23 01:36:02;;;;;;;39.75;23.80;;;;;;;;;;776148;178;1996500;-70
2021/03/23 01:38:28;;;;;;;40.43;24.63;;;;;;;;;;779738;179;928848;-68
2021/03/23 01:40:55;;;;;;;34.53;24.50;;;;;;;;;;778486;178;919021;-70
2021/03/23 01:43:22;;;;;;;37.93;26.30;;;;;;;;;;781468;178;918799;-69
2021/03/23 01:45:47;;;;;;;50.37;25.83;;;;;;;;;;779554;178;919451;-69
2021/03/23 01:48:19;;;;;;;50.07;29.40;;;;;;;;;;777976;178;918331;-69
2021/03/23 01:50:45;;;;;;;51.83;27.13;;;;;;;;;;784992;179;631748;-69
2021/03/23 01:53:11;;;;;;;46.07;26.70;;;;;;;;;;773944;179;1890487;-69
2021/03/23 01:55:37;;;;;;;43.90;26.83;;;;;;;;;;778221;179;922665;-69
2021/03/23 01:58:03;;;;;;;45.17;26.70;;;;;;;;;;775488;179;920525;-69
2021/03/23 02:00:28;;;;;;;48.13;26.00;;;;;;;;;;770748;179;915808;-70
2021/03/23 02:02:54;;;;;;;45.33;28.30;;;;;;;;;;777858;179;915478;-69
2021/03/23 02:05:20;;;;;;;45.95;26.48;;;;;;;;;;773694;179;914625;-69
2021/03/23 02:07:46;;;;;;;42.90;26.20;;;;;;;;;;780067;179;919502;-69
2021/03/23 02:10:12;;;;;;;42.97;26.13;;;;;;;;;;774956;179;919430;-69
2021/03/23 02:12:37;;;;;;;47.10;26.67;;;;;;;;;;777446;179;918642;-69
2021/03/23 02:15:06;;;;;;;39.67;24.27;;;;;;;;;;780328;179;920707;-70
2021/03/23 02:17:32;;;;;;;44.33;25.55;;;;;;;;;;780314;179;918853;-69
2021/03/23 02:19:56;;;;;;;47.37;24.97;;;;;;;;;;773699;179;920356;-69
2021/03/23 02:22:22;;;;;;;73.43;30.80;;;;;;;;;;782177;179;918268;-70
2021/03/23 02:24:48;;;;;;;54.40;28.00;;;;;;;;;;776578;179;919557;-69
2021/03/23 02:27:14;;;;;;;62.75;33.40;;;;;;;;;;780961;179;916364;-69
2021/03/23 02:29:40;;;;;;;53.07;29.03;;;;;;;;;;775428;179;915851;-70
2021/03/23 02:32:06;;;;;;;56.80;29.37;;;;;;;;;;782131;175;867575;-69
2021/03/23 02:34:37;;;;;;;40.57;25.50;;;;;;;;;;775474;179;919423;-69
2021/03/23 02:37:02;;;;;;;42.03;24.80;;;;;;;;;;778743;179;918237;-69
2021/03/23 02:39:29;;;;;;;42.57;26.53;;;;;;;;;;781574;179;919509;-70
2021/03/23 02:41:55;;;;;;;49.13;24.30;;;;;;;;;;777435;179;1019987;-69
2021/03/23 02:44:20;;;;;;;67.68;31.02;;;;;;;;;;782319;178;919427;-70
2021/03/23 02:46:46;;;;;;;41.43;23.77;;;;;;;;;;782514;178;919134;-68
2021/03/23 02:49:12;;;;;;;46.47;28.70;;;;;;;;;;778486;178;920368;-69
2021/03/23 02:51:38;;;;;;;45.63;25.60;;;;;;;;;;776832;178;919077;-69
2021/03/23 02:54:04;;;;;;;66.22;32.17;;;;;;;;;;777914;178;921114;-69
2021/03/23 02:56:30;;;;;;;45.77;25.27;;;;;;;;;;766485;182;920006;-68
2021/03/23 02:58:56;;;;;;;49.00;28.17;;;;;;;;;;776293;178;980591;-69
2021/03/23 03:01:21;;;;;;;67.50;32.97;;;;;;;;;;767764;179;1787801;-69
2021/03/23 03:03:47;;;;;;;43.50;27.33;;;;;;;;;;783242;179;918334;-69
2021/03/23 03:06:13;;;;;;;35.40;22.83;;;;;;;;;;775567;179;930536;-69
2021/03/23 03:08:39;;;;;;;54.47;28.43;;;;;;;;;;779042;179;917240;-69
2021/03/23 03:11:05;;;;;;;47.30;24.70;;;;;;;;;;779490;179;916949;-70
2021/03/23 03:13:31;;;;;;;40.50;23.83;;;;;;;;;;775527;179;916177;-70
2021/03/23 03:15:58;;;;;;;46.07;23.17;;;;;;;;;;771733;179;919425;-70
2021/03/23 03:18:25;;;;;;;44.60;23.45;;;;;;;;;;781581;179;919531;-69
2021/03/23 03:20:51;;;;;;;54.43;27.17;;;;;;;;;;782303;177;912154;-69
2021/03/23 03:23:16;;;;;;;46.17;27.00;;;;;;;;;;774304;179;918716;-69
2021/03/23 03:25:42;;;;;;;38.70;23.47;;;;;;;;;;777038;179;919492;-70
2021/03/23 03:28:08;;;;;;;36.93;25.07;;;;;;;;;;781335;179;915219;-69
2021/03/23 03:30:34;;;;;;;43.60;22.87;;;;;;;;;;776356;179;916111;-69
2021/03/23 03:33:00;;;;;;;37.33;24.77;;;;;;;;;;775596;179;919064;-69
2021/03/23 03:35:26;;;;;;;82.60;37.90;;;;;;;;;;781584;179;1130332;-69
2021/03/23 03:37:51;;;;;;;63.83;33.00;;;;;;;;;;776171;179;918726;-69
2021/03/23 03:40:18;;;;;;;51.73;29.10;;;;;;;;;;777492;179;918828;-69
2021/03/23 03:42:44;;;;;;;44.77;26.37;;;;;;;;;;775410;179;1800973;-69
2021/03/23 03:45:11;;;;;;;84.93;33.77;;;;;;;;;;776242;179;918594;-69
2021/03/23 03:47:37;;;;;;;38.92;23.67;;;;;;;;;;776197;179;919352;-68
2021/03/23 03:50:03;;;;;;;41.97;24.43;;;;;;;;;;776620;179;1021248;-69
2021/03/23 03:52:28;;;;;;;35.00;22.20;;;;;;;;;;781168;179;919480;-68
2021/03/23 03:54:54;;;;;;;37.60;24.10;;;;;;;;;;781227;176;918927;-69
2021/03/23 03:57:20;;;;;;;36.10;21.67;;;;;;;;;;778258;178;920949;-69
2021/03/23 03:59:46;;;;;;;57.62;24.52;;;;;;;;;;781461;178;918826;-69
2021/03/23 04:02:12;;;;;;;40.03;22.80;;;;;;;;;;778354;178;918343;-69
2021/03/23 04:04:38;;;;;;;39.97;24.80;;;;;;;;;;773959;178;911796;-70
2021/03/23 04:07:04;;;;;;;39.00;23.43;;;;;;;;;;781946;179;919136;-69
2021/03/23 04:09:30;;;;;;;35.20;22.97;;;;;;;;;;768766;182;921993;-69
2021/03/23 04:11:55;;;;;;;36.33;23.93;;;;;;;;;;778219;178;918892;-70
2021/03/23 04:14:21;;;;;;;36.87;22.43;;;;;;;;;;777930;179;918807;-69
2021/03/23 04:16:47;;;;;;;37.43;23.87;;;;;;;;;;779543;179;920009;-69
2021/03/23 04:19:13;;;;;;;43.63;22.15;;;;;;;;;;773257;179;1123093;-70
2021/03/23 04:21:39;;;;;;;36.20;22.73;;;;;;;;;;777920;179;922125;-69
2021/03/23 04:24:05;;;;;;;33.40;21.60;;;;;;;;;;782245;179;884814;-70
2021/03/23 04:26:31;;;;;;;37.20;21.80;;;;;;;;;;775600;179;919064;-70
2021/03/23 04:28:57;;;;;;;39.03;22.73;;;;;;;;;;774858;179;1038917;-69
2021/03/23 04:31:29;;;;;;;37.83;21.70;;;;;;;;;;783985;179;916564;-70
2021/03/23 04:33:58;;;;;;;30.37;21.77;;;;;;;;;;776138;179;914638;-71
2021/03/23 04:36:24;;;;;;;35.77;21.70;;;;;;;;;;778024;179;915161;-70
2021/03/23 04:38:50;;;;;;;35.73;21.70;;;;;;;;;;777644;179;919430;-70
2021/03/23 04:41:15;;;;;;;33.83;22.70;;;;;;;;;;780985;179;915004;-69
2021/03/23 04:43:41;;;;;;;27.97;17.00;;;;;;;;;;776443;179;917859;-70
2021/03/23 04:46:07;;;;;;;34.47;18.30;;;;;;;;;;773252;179;934471;-70
2021/03/23 04:48:33;;;;;;;31.27;18.80;;;;;;;;;;783266;179;934379;-70
2021/03/23 04:50:59;;;;;;;34.83;18.93;;;;;;;;;;775848;179;993925;-69
2021/03/23 04:53:25;;;;;;;47.90;21.60;;;;;;;;;;778718;179;916508;-69
2021/03/23 04:55:50;;;;;;;29.57;18.60;;;;;;;;;;779740;179;915227;-69
2021/03/23 04:58:16;;;;;;;29.37;18.27;;;;;;;;;;778118;179;916499;-69
2021/03/23 05:00:42;;;;;;;36.63;18.90;;;;;;;;;;774322;179;919085;-69
2021/03/23 05:03:16;;;;;;;49.10;23.57;;;;;;;;;;781005;179;916030;-69
2021/03/23 05:05:42;;;;;;;37.80;19.40;;;;;;;;;;767677;180;915570;-69
2021/03/23 05:08:07;;;;;;;28.20;16.43;;;;;;;;;;783377;178;915380;-69
2021/03/23 05:10:33;;;;;;;31.80;18.47;;;;;;;;;;775743;178;937392;-69
2021/03/23 05:13:00;;;;;;;31.07;17.97;;;;;;;;;;785667;178;916161;-69
2021/03/23 05:15:25;;;;;;;24.70;17.27;;;;;;;;;;780671;178;920428;-69
2021/03/23 05:17:51;;;;;;;27.80;15.60;;;;;;;;;;774996;178;917072;-69
2021/03/23 05:20:17;;;;;;;33.73;16.70;;;;;;;;;;783378;178;919985;-69
2021/03/23 05:22:42;;;;;;;31.77;15.93;;;;;;;;;;776485;178;910922;-69
2021/03/23 05:25:09;;;;;;;28.23;14.73;;;;;;;;;;776362;178;919371;-69
2021/03/23 05:27:35;;;;;;;24.90;15.60;;;;;;;;;;774713;179;920855;-69
2021/03/23 05:30:01;;;;;;;31.10;16.20;;;;;;;;;;785188;179;915719;-70
2021/03/23 05:32:27;;;;;;;26.17;15.30;;;;;;;;;;777293;179;944397;-69
2021/03/23 05:34:52;;;;;;;29.10;16.60;;;;;;;;;;778283;179;918633;-70
2021/03/23 05:37:19;;;;;;;32.13;15.40;;;;;;;;;;780563;179;919971;-69
2021/03/23 05:39:44;;;;;;;24.07;14.63;;;;;;;;;;781527;179;757118;-70
2021/03/23 05:42:27;;;;;;;19.37;13.27;;;;;;;;;;779385;179;630993;-71
2021/03/23 05:44:57;;;;;;;24.10;14.83;;;;;;;;;;781083;179;618827;-71
2021/03/23 05:47:25;;;;;;;25.80;14.25;;;;;;;;;;779611;179;621844;-69
2021/03/23 05:49:51;;;;;;;25.60;14.60;;;;;;;;;;778007;179;620561;-69
2021/03/23 05:52:34;;;;;;;23.53;13.93;;;;;;;;;;772737;179;1800509;-70
2021/03/23 05:55:00;;;;;;;22.60;13.13;;;;;;;;;;780793;179;618738;-69
2021/03/23 05:57:26;;;;;;;29.87;16.93;;;;;;;;;;778313;179;619695;-69
2021/03/23 05:59:51;;;;;;;31.23;16.73;;;;;;;;;;784415;179;622443;-70
2021/03/23 06:02:23;;;;;;;26.67;14.07;;;;;;;;;;775805;179;812928;-69
2021/03/23 06:04:51;;;;;;;21.17;14.50;;;;;;;;;;780676;179;635302;-70
2021/03/23 06:07:17;;;;;;;31.30;17.43;;;;;;;;;;780037;179;625956;-69
2021/03/23 06:09:43;;;;;;;24.50;15.87;;;;;;;;;;782300;179;626201;-69
2021/03/23 06:12:09;;;;;;;26.93;16.60;;;;;;;;;;782701;179;671398;-69
2021/03/23 06:14:37;;;;;;;38.37;19.40;;;;;;;;;;776733;179;627098;-68
2021/03/23 06:17:06;;;;;;;27.10;15.23;;;;;;;;;;782783;179;626345;-69
2021/03/23 06:19:38;;;;;;;26.03;14.83;;;;;;;;;;782295;178;623305;-69
2021/03/23 06:22:20;;;;;;;20.67;13.87;;;;;;;;;;785595;178;620529;-69
2021/03/23 06:24:47;;;;;;;19.23;11.57;;;;;;;;;;775402;178;619285;-67
2021/03/23 06:27:16;;;;;;;19.20;13.13;;;;;;;;;;781897;178;629540;-68
2021/03/23 06:29:50;;;;;;;23.20;15.00;;;;;;;;;;780115;178;618691;-68
2021/03/23 06:32:23;;;;;;;19.90;11.47;;;;;;;;;;778063;179;629514;-69
2021/03/23 06:34:49;;;;;;;25.77;14.73;;;;;;;;;;780548;178;629598;-68
2021/03/23 06:37:19;;;;;;;25.63;13.80;;;;;;;;;;781097;179;628537;-68
2021/03/23 06:39:45;;;;;;;22.33;13.60;;;;;;;;;;779115;179;667931;-69
2021/03/23 06:42:11;;;;;;;22.63;12.97;;;;;;;;;;779192;179;622597;-68
2021/03/23 06:44:36;;;;;;;21.77;13.33;;;;;;;;;;779364;179;621989;-68
2021/03/23 06:47:02;;;;;;;24.67;13.73;;;;;;;;;;780170;179;623294;-69
2021/03/23 06:49:30;;;;;;;43.37;13.90;;;;;;;;;;783313;179;640392;-68
2021/03/23 06:52:00;;;;;;;23.23;12.93;;;;;;;;;;781700;179;636709;-68
2021/03/23 06:54:28;;;;;;;21.27;13.10;;;;;;;;;;778704;179;618827;-69
2021/03/23 06:57:10;;;;;;;21.30;11.87;;;;;;;;;;782203;179;622986;-68
2021/03/23 06:59:42;;;;;;;26.80;12.67;;;;;;;;;;778561;179;623783;-68
2021/03/23 07:02:07;;;;;;;26.93;13.03;;;;;;;;;;776306;179;625472;-68
2021/03/23 07:04:34;;;;;;;27.00;13.17;;;;;;;;;;780485;179;632586;-69
2021/03/23 07:07:04;;;;;;;34.60;11.80;;;;;;;;;;779857;179;643469;-68
2021/03/23 07:09:30;;;;;;;28.10;14.47;;;;;;;;;;785019;179;630448;-67
2021/03/23 07:11:56;;;;;;;20.83;13.43;;;;;;;;;;779613;179;640453;-67
2021/03/23 07:14:22;;;;;;;19.17;10.80;;;;;;;;;;781443;179;645316;-66
2021/03/23 07:16:48;;;;;;;19.33;11.00;;;;;;;;;;777132;179;629282;-66
2021/03/23 07:19:14;;;;;;;27.27;13.30;;;;;;;;;;782636;179;623878;-65
2021/03/23 07:21:40;;;;;;;22.85;14.18;;;;;;;;;;780820;179;640713;-66
2021/03/23 07:24:06;;;;;;;20.33;12.33;;;;;;;;;;776292;179;646742;-64
2021/03/23 07:26:35;;;;;;;19.67;11.73;;;;;;;;;;782126;179;628086;-65
2021/03/23 07:29:16;;;;;;;21.90;12.07;;;;;;;;;;782214;178;647874;-65
2021/03/23 07:31:42;;;;;;;21.83;11.50;;;;;;;;;;779691;178;629995;-65
2021/03/23 07:34:10;;;;;;;26.17;13.30;;;;;;;;;;784240;178;636183;-65
2021/03/23 07:36:39;;;;;;;26.80;14.63;;;;;;;;;;780713;178;622671;-65
2021/03/23 07:39:18;;;;;;;25.00;15.40;;;;;;;;;;782961;178;636925;-66
2021/03/23 07:41:46;;;;;;;22.73;13.07;;;;;;;;;;766936;182;1979416;-66
2021/03/23 07:44:18;;;;;;;20.47;12.37;;;;;;;;;;781482;178;631405;-65
2021/03/23 07:46:44;;;;;;;19.03;12.60;;;;;;;;;;780614;178;625899;-66
2021/03/23 07:49:10;;;;;;;17.10;12.27;;;;;;;;;;785336;179;630679;-65
2021/03/23 07:51:38;;;;;;;23.13;12.23;;;;;;;;;;777149;179;632959;-66
2021/03/23 07:54:10;;;;;;;22.83;12.70;;;;;;;;;;781642;179;638878;-65
2021/03/23 07:56:36;;;;;;;25.30;11.93;;;;;;;;;;781968;179;634535;-69
2021/03/23 07:59:02;;;;;;;32.57;14.87;;;;;;;;;;782015;179;633256;-66
2021/03/23 08:01:28;;;;;;;20.40;9.50;;;;;;;;;;782348;179;626791;-67
2021/03/23 08:03:55;;;;;;;20.53;10.03;;;;;;;;;;761930;179;3925279;-64
2021/03/23 08:06:23;;;;;;;13.33;9.10;;;;;;;;;;785601;179;628255;-65
2021/03/23 08:08:55;;;;;;;18.73;10.73;;;;;;;;;;778531;179;632917;-65
2021/03/23 08:11:27;;;;;;;19.90;10.47;;;;;;;;;;782146;179;620226;-64
2021/03/23 08:13:57;;;;;;;14.27;8.27;;;;;;;;;;776792;179;627570;-64
2021/03/23 08:16:23;;;;;;;13.87;7.97;;;;;;;;;;780037;179;623987;-65
2021/03/23 08:18:55;;;;;;;12.73;8.97;;;;;;;;;;781990;179;633639;-64
2021/03/23 08:21:27;;;;;;;15.50;9.23;;;;;;;;;;781634;179;625802;-64
2021/03/23 08:23:56;;;;;;;21.13;11.83;;;;;;;;;;778706;179;676209;-63
2021/03/23 08:26:23;;;;;;;23.07;8.37;;;;;;;;;;780038;179;619117;-63
2021/03/23 08:29:00;;;;;;;27.27;12.50;;;;;;;;;;776345;179;1621589;-63
2021/03/23 08:31:32;;;;;;;20.40;9.60;;;;;;;;;;776239;182;617653;-62
2021/03/23 08:33:58;;;;;;;21.30;8.93;;;;;;;;;;778745;179;634601;-62
2021/03/23 08:36:30;;;;;;;18.63;10.63;;;;;;;;;;780456;179;638844;-63
2021/03/23 08:38:56;;;;;;;18.17;10.80;;;;;;;;;;776513;179;620569;-63
2021/03/23 08:41:27;;;;;;;26.13;13.40;;;;;;;;;;786083;177;625241;-63
2021/03/23 08:43:53;;;;;;;19.60;11.77;;;;;;;;;;781161;178;626225;-63
2021/03/23 08:46:20;;;;;;;28.77;15.67;;;;;;;;;;783510;178;635929;-63
2021/03/23 08:48:47;;;;;;;34.17;18.43;;;;;;;;;;783634;178;630453;-64
2021/03/23 08:51:12;;;;;;;26.03;11.97;;;;;;;;;;780998;178;618161;-65
2021/03/23 08:53:38;;;;;;;29.07;14.30;;;;;;;;;;783189;178;618638;-62
2021/03/23 08:56:04;;;;;;;21.40;11.53;;;;;;;;;;780209;178;616068;-63
2021/03/23 08:58:36;;;;;;;27.30;13.97;;;;;;;;;;786823;178;626239;-63
2021/03/23 09:01:02;;;;;;;15.40;7.90;;;;;;;;;;780928;179;620402;-63
2021/03/23 09:03:33;;;;;;;19.20;10.05;;;;;;;;;;782464;179;632747;-64
2021/03/23 09:05:59;;;;;;;27.30;10.40;;;;;;;;;;779606;179;624238;-63
2021/03/23 09:08:29;;;;;;;23.83;10.83;;;;;;;;;;782342;179;1051584;-64
2021/03/23 09:10:57;;;;;;;29.53;12.50;;;;;;;;;;772558;179;1649995;-63
2021/03/23 09:13:21;;;;;;;30.37;15.37;;;;;;;;;;781963;179;630180;-63
2021/03/23 09:15:50;;;;;;;24.10;12.27;;;;;;;;;;783137;179;627500;-62
2021/03/23 09:18:26;;;;;;;21.10;10.30;;;;;;;;;;782576;179;638662;-65
2021/03/23 09:20:59;;;;;;;24.03;12.67;;;;;;;;;;780247;179;656383;-63
2021/03/23 09:23:40;;;;;;;17.77;10.77;;;;;;;;;;779826;179;632742;-63
2021/03/23 09:26:11;;;;;;;17.53;8.80;;;;;;;;;;779682;179;630372;-63
2021/03/23 09:28:40;;;;;;;22.57;11.20;;;;;;;;;;780925;179;622839;-63
2021/03/23 09:31:05;;;;;;;26.60;10.23;;;;;;;;;;786964;179;608720;-65
2021/03/23 09:33:32;;;;;;;20.53;8.70;;;;;;;;;;777240;179;634908;-64
2021/03/23 09:36:03;;;;;;;24.93;11.00;;;;;;;;;;778711;179;652049;-63
2021/03/23 09:38:31;;;;;;;23.53;11.87;;;;;;;;;;781771;179;628224;-63
2021/03/23 09:40:57;;;;;;;17.70;9.73;;;;;;;;;;782801;179;630142;-64
2021/03/23 09:43:22;;;;;;;37.70;14.43;;;;;;;;;;782424;179;624254;-65
2021/03/23 09:45:59;;;;;;;21.53;10.10;;;;;;;;;;781726;179;710916;-66
2021/03/23 09:48:36;;;;;;;19.63;9.27;;;;;;;;;;780560;179;635300;-65
2021/03/23 09:51:02;;;;;;;14.50;7.63;;;;;;;;;;784526;179;630723;-65
2021/03/23 09:53:28;;;;;;;34.13;16.03;;;;;;;;;;780978;178;629882;-65
2021/03/23 09:55:54;;;;;;;22.10;10.90;;;;;;;;;;782796;178;624261;-65
2021/03/23 09:58:20;;;;;;;37.93;19.50;;;;;;;;;;778053;178;677587;-67
2021/03/23 10:00:46;;;;;;;35.83;15.40;;;;;;;;;;786905;178;632335;-63
2021/03/23 10:03:17;;;;;;;32.47;11.30;;;;;;;;;;779851;178;633217;-65
2021/03/23 10:05:43;;;;;;;17.47;9.17;;;;;;;;;;782911;178;633415;-64
2021/03/23 10:08:13;;;;;;;28.33;12.60;;;;;;;;;;780930;178;639061;-63
2021/03/23 10:10:38;;;;;;;33.83;13.27;;;;;;;;;;783699;178;625273;-65
2021/03/23 10:13:09;;;;;;;26.33;11.97;;;;;;;;;;781731;179;665572;-64
2021/03/23 10:15:36;;;;;;;51.20;24.70;;;;;;;;;;783607;179;631434;-64
2021/03/23 10:18:07;;;;;;;34.43;13.60;;;;;;;;;;784191;179;609532;-64
2021/03/23 10:20:33;;;;;;;29.30;12.57;;;;;;;;;;779729;179;638594;-64
2021/03/23 10:22:59;;;;;;;36.40;15.00;;;;;;;;;;780951;179;617373;-64
2021/03/23 10:25:25;;;;;;;31.37;14.00;;;;;;;;;;782519;179;622613;-65
2021/03/23 10:27:51;;;;;;;27.83;13.63;;;;;;;;;;782546;179;636091;-64
2021/03/23 10:30:18;;;;;;;20.10;10.37;;;;;;;;;;780525;179;622728;-64
2021/03/23 10:32:48;;;;;;;27.67;10.37;;;;;;;;;;777993;179;637327;-66
2021/03/23 10:35:30;;;;;;;22.67;11.00;;;;;;;;;;783376;179;641656;-64
2021/03/23 10:37:59;;;;;;;24.23;11.00;;;;;;;;;;777517;182;614452;-65
2021/03/23 10:40:36;;;;;;;21.33;9.67;;;;;;;;;;775328;182;634491;-64
2021/03/23 10:43:01;;;;;;;19.30;10.03;;;;;;;;;;782788;179;632773;-66
2021/03/23 10:45:27;;;;;;;17.40;9.40;;;;;;;;;;780058;179;630697;-63
2021/03/23 10:47:58;;;;;;;20.83;10.53;;;;;;;;;;783245;179;631752;-64
2021/03/23 10:50:25;;;;;;;14.63;9.67;;;;;;;;;;775925;182;622453;-66
2021/03/23 10:52:51;;;;;;;24.00;10.97;;;;;;;;;;779028;179;630785;-64
2021/03/23 10:55:18;;;;;;;19.60;10.30;;;;;;;;;;777014;179;636077;-66
2021/03/23 10:57:45;;;;;;;18.27;10.23;;;;;;;;;;785585;179;619392;-66
2021/03/23 11:00:14;;;;;;;22.83;11.10;;;;;;;;;;769976;179;1407752;-66
2021/03/23 11:02:40;;;;;;;24.07;11.07;;;;;;;;;;776016;179;646779;-65
2021/03/23 11:05:09;;;;;;;25.67;11.50;;;;;;;;;;781672;177;618763;-65
2021/03/23 11:07:33;;;;;;;21.00;12.00;;;;;;;;;;784724;175;637895;-65
2021/03/23 11:10:00;;;;;;;20.87;11.50;;;;;;;;;;782287;178;625815;-65
2021/03/23 11:12:25;;;;;;;22.33;12.17;;;;;;;;;;782375;178;622973;-65
2021/03/23 11:14:51;;;;;;;25.63;10.97;;;;;;;;;;784107;178;623125;-67
2021/03/23 11:17:16;;;;;;;22.57;10.97;;;;;;;;;;784196;178;626800;-65
2021/03/23 11:19:48;;;;;;;17.80;10.97;;;;;;;;;;779453;178;913422;-65
2021/03/23 11:22:11;;;;;;;24.37;9.97;;;;;;;;;;779393;179;635143;-66
2021/03/23 11:24:36;;;;;;;15.10;9.80;;;;;;;;;;783814;179;630030;-66
2021/03/23 11:27:02;;;;;;;19.73;9.90;;;;;;;;;;780250;179;632254;-67
2021/03/23 11:29:28;;;;;;;18.93;10.33;;;;;;;;;;780456;179;633133;-69
2021/03/23 11:31:54;;;;;;;28.10;12.87;;;;;;;;;;774904;179;617856;-64
2021/03/23 11:34:20;;;;;;;18.57;11.10;;;;;;;;;;781792;179;631925;-62
2021/03/23 11:36:46;;;;;;;17.53;11.23;;;;;;;;;;780298;179;628551;-63
2021/03/23 11:39:13;;;;;;;24.80;12.40;;;;;;;;;;786956;179;618422;-63
2021/03/23 11:41:54;;;;;;;23.27;11.17;;;;;;;;;;779459;179;623646;-63
2021/03/23 11:44:21;;;;;;;28.83;12.00;;;;;;;;;;781036;179;642045;-64
2021/03/23 11:46:49;;;;;;;34.97;14.00;;;;;;;;;;780468;179;618792;-64
2021/03/23 11:49:28;;;;;;;26.40;11.50;;;;;;;;;;783254;179;630638;-64
2021/03/23 11:51:54;;;;;;;24.90;10.30;;;;;;;;;;774138;179;629794;-63
2021/03/23 11:54:20;;;;;;;21.63;12.57;;;;;;;;;;783834;179;640204;-64
2021/03/23 11:56:46;;;;;;;14.00;8.70;;;;;;;;;;780241;179;641163;-64
2021/03/23 11:59:12;;;;;;;21.00;13.43;;;;;;;;;;784596;179;656395;-64
2021/03/23 12:01:38;;;;;;;22.90;11.07;;;;;;;;;;779739;179;621349;-65
2021/03/23 12:04:05;;;;;;;12.67;7.80;;;;;;;;;;778754;179;642134;-66
2021/03/23 12:06:40;;;;;;;16.03;9.97;;;;;;;;;;777347;179;715324;-67
2021/03/23 12:09:06;;;;;;;31.77;12.23;;;;;;;;;;784494;179;614438;-64
2021/03/23 12:11:49;;;;;;;33.70;18.93;;;;;;;;;;778862;179;631069;-65
2021/03/23 12:14:16;;;;;;;24.57;14.67;;;;;;;;;;780262;179;626053;-65
2021/03/23 12:16:48;;;;;;;18.77;11.13;;;;;;;;;;783721;177;625725;-65
2021/03/23 12:19:15;;;;;;;22.10;11.23;;;;;;;;;;782467;178;632222;-66
2021/03/23 12:21:40;;;;;;;18.63;11.20;;;;;;;;;;786708;178;621239;-64
2021/03/23 12:24:07;;;;;;;31.60;22.47;;;;;;;;;;781459;178;664662;-64
2021/03/23 12:26:34;;;;;;;19.63;10.80;;;;;;;;;;782470;178;633412;-66
2021/03/23 12:29:00;;;;;;;19.60;12.67;;;;;;;;;;782999;178;640018;-64
2021/03/23 12:31:26;;;;;;;19.50;12.70;;;;;;;;;;782064;178;623633;-66
2021/03/23 12:33:52;;;;;;;21.33;11.60;;;;;;;;;;781694;178;626683;-65
2021/03/23 12:36:17;;;;;;;23.90;15.30;;;;;;;;;;781850;179;641668;-65
2021/03/23 12:38:43;;;;;;;17.90;12.40;;;;;;;;;;782936;179;624428;-65
2021/03/23 12:41:14;;;;;;;24.00;14.50;;;;;;;;;;778825;179;634239;-65
2021/03/23 12:43:41;;;;;;;33.27;17.57;;;;;;;;;;776681;179;679095;-67
2021/03/23 12:46:06;;;;;;;15.27;10.63;;;;;;;;;;783470;179;632141;-64
2021/03/23 12:48:33;;;;;;;16.43;8.83;;;;;;;;;;771377;179;2213497;-66
2021/03/23 12:50:58;;;;;;;26.77;13.30;;;;;;;;;;780687;179;745379;-65
2021/03/23 12:53:24;;;;;;;25.80;11.02;;;;;;;;;;779729;179;645088;-65
2021/03/23 12:55:50;;;;;;;24.23;12.63;;;;;;;;;;782336;175;632789;-64
2021/03/23 12:58:16;;;;;;;23.20;10.90;;;;;;;;;;779377;179;681657;-65
2021/03/23 13:00:42;;;;;;;17.95;8.50;;;;;;;;;;776404;179;667835;-64
2021/03/23 13:03:08;;;;;;;17.43;10.20;;;;;;;;;;782036;179;784470;-63
2021/03/23 13:05:34;;;;;;;21.43;10.23;;;;;;;;;;776994;179;671779;-64
2021/03/23 13:08:01;;;;;;;18.87;10.50;;;;;;;;;;778804;179;645962;-64
2021/03/23 13:10:29;;;;;;;26.50;12.07;;;;;;;;;;781315;179;640521;-64
2021/03/23 13:12:55;;;;;;;31.07;15.97;;;;;;;;;;781173;179;625885;-64
2021/03/23 13:15:21;;;;;;;27.40;14.50;;;;;;;;;;773119;179;1482472;-64
2021/03/23 13:17:46;;;;;;;16.50;10.90;;;;;;;;;;780410;179;631497;-63
2021/03/23 13:20:12;;;;;;;14.97;8.63;;;;;;;;;;779047;175;645713;-64
2021/03/23 13:22:38;;;;;;;16.50;8.37;;;;;;;;;;780735;179;627694;-64
2021/03/23 13:25:05;;;;;;;17.63;9.40;;;;;;;;;;777006;179;637628;-63
2021/03/23 13:27:33;;;;;;;28.30;9.63;;;;;;;;;;784977;178;628075;-65
2021/03/23 13:29:57;;;;;;;15.40;8.43;;;;;;;;;;778858;178;646608;-65
2021/03/23 13:32:23;;;;;;;17.03;8.87;;;;;;;;;;781967;178;658212;-65
2021/03/23 13:34:50;;;;;;;14.97;7.83;;;;;;;;;;781484;178;775249;-64
2021/03/23 13:37:17;;;;;;;12.23;7.10;;;;;;;;;;779728;178;819508;-65
2021/03/23 13:39:43;;;;;;;13.63;7.00;;;;;;;;;;782852;178;623006;-64
2021/03/23 13:42:16;;;;;;;54.73;21.30;;;;;;;;;;777640;178;631671;-63
2021/03/23 13:44:50;;;;;;;17.20;8.27;;;;;;;;;;771947;182;629662;-64
2021/03/23 13:47:16;;;;;;;12.37;6.40;;;;;;;;;;774211;182;631668;-64
2021/03/23 13:49:42;;;;;;;18.50;8.10;;;;;;;;;;780517;179;636454;-63
2021/03/23 13:52:26;;;;;;;12.90;8.13;;;;;;;;;;777907;179;646528;-64
2021/03/23 13:54:51;;;;;;;14.90;7.57;;;;;;;;;;775064;179;729075;-63
2021/03/23 13:57:17;;;;;;;14.73;7.50;;;;;;;;;;774786;179;1825453;-65
2021/03/23 13:59:43;;;;;;;11.20;5.67;;;;;;;;;;780931;179;629051;-63
2021/03/23 14:02:09;;;;;;;11.23;6.00;;;;;;;;;;777776;179;782130;-64
2021/03/23 14:04:34;;;;;;;17.70;9.40;;;;;;;;;;783761;179;630148;-64
2021/03/23 14:07:00;;;;;;;26.10;14.87;;;;;;;;;;778423;179;642421;-63